createdAt,value
2023-04-06T00:02:22.651Z,97431.03
2023-04-06T00:04:49.169Z,97430.34
2023-04-06T00:07:15.878Z,97427.78
2023-04-06T00:09:42.423Z,97430.34
2023-04-06T00:12:08.969Z,97430.34
2023-04-06T00:14:35.528Z,97423.47
2023-04-06T00:17:02.574Z,97423.56
2023-04-06T00:19:29.187Z,97423.56
2023-04-06T00:21:55.957Z,97430.47
2023-04-06T00:24:22.608Z,97433.16
2023-04-06T00:26:49.250Z,97424.59
2023-04-06T00:29:16.157Z,97423.78
2023-04-06T00:31:42.799Z,97426.47
2023-04-06T00:34:09.411Z,97423.03
2023-04-06T00:36:36.095Z,97425.63
2023-04-06T00:39:02.673Z,97429.06
2023-04-06T00:41:29.278Z,97429.97
2023-04-06T00:43:56.025Z,97424.81
2023-04-06T00:46:22.632Z,97422.28
2023-04-06T00:48:49.202Z,97423.19
2023-04-06T00:51:15.854Z,97422.31
2023-04-06T00:53:42.424Z,97426.69
2023-04-06T00:56:10.837Z,97421.66
2023-04-06T00:58:41.666Z,97421.75
2023-04-06T01:01:08.463Z,97419.22
2023-04-06T01:03:35.137Z,97418.34
2023-04-06T01:06:01.788Z,97415.75
2023-04-06T01:08:28.858Z,97413.22
2023-04-06T01:10:55.678Z,97414.97
2023-04-06T01:13:22.206Z,97415.88
2023-04-06T01:15:49.011Z,97417.56
2023-04-06T01:18:15.928Z,97415.03
2023-04-06T01:20:42.636Z,97420.22
2023-04-06T01:23:09.219Z,97419.44
2023-04-06T01:25:35.971Z,97423.78
2023-04-06T01:28:02.610Z,97413.47
2023-04-06T01:30:29.176Z,97409.16
2023-04-06T01:32:55.802Z,97414.28
2023-04-06T01:35:23.375Z,97414.31
2023-04-06T01:37:49.978Z,97411.72
2023-04-06T01:40:17.075Z,97409.19
2023-04-06T01:42:43.731Z,97405.78
2023-04-06T01:45:11.168Z,97411.81
2023-04-06T01:47:37.726Z,97400.66
2023-04-06T01:50:07.097Z,97398.06
2023-04-06T01:52:36.756Z,97397.22
2023-04-06T01:55:03.349Z,97397.19
2023-04-06T01:57:29.919Z,97401.53
2023-04-06T01:59:56.482Z,97404.16
2023-04-06T02:02:23.104Z,97404.13
2023-04-06T02:04:49.678Z,97403.31
2023-04-06T02:07:16.220Z,97399.94
2023-04-06T02:09:42.780Z,97396.50
2023-04-06T02:12:09.316Z,97399.09
2023-04-06T02:14:35.867Z,97401.63
2023-04-06T02:17:02.427Z,97393.09
2023-04-06T02:19:28.989Z,97394.81
2023-04-06T02:21:55.546Z,97401.72
2023-04-06T02:24:22.100Z,97398.25
2023-04-06T02:26:48.650Z,97403.41
2023-04-06T02:29:15.302Z,97406.81
2023-04-06T02:31:41.874Z,97410.28
2023-04-06T02:34:11.992Z,97400.00
2023-04-06T02:36:38.498Z,97402.59
2023-04-06T02:39:05.114Z,97396.66
2023-04-06T02:41:31.621Z,97395.78
2023-04-06T02:43:58.158Z,97398.41
2023-04-06T02:46:24.834Z,97394.13
2023-04-06T02:48:51.540Z,97400.13
2023-04-06T02:51:18.058Z,97391.56
2023-04-06T02:53:44.575Z,97392.44
2023-04-06T02:56:11.458Z,97395.03
2023-04-06T02:58:38.075Z,97400.25
2023-04-06T03:01:04.896Z,97401.97
2023-04-06T03:03:31.701Z,97395.16
2023-04-06T03:06:00.684Z,97400.28
2023-04-06T03:08:27.338Z,97400.31
2023-04-06T03:10:53.880Z,97403.75
2023-04-06T03:13:20.637Z,97403.75
2023-04-06T03:15:47.260Z,97409.75
2023-04-06T03:18:13.891Z,97405.47
2023-04-06T03:20:40.476Z,97401.19
2023-04-06T03:23:07.078Z,97414.06
2023-04-06T03:25:33.622Z,97415.78
2023-04-06T03:28:00.245Z,97409.81
2023-04-06T03:30:27.634Z,97411.53
2023-04-06T03:32:54.260Z,97423.53
2023-04-06T03:35:20.941Z,97426.09
2023-04-06T03:37:47.555Z,97426.94
2023-04-06T03:40:14.199Z,97431.25
2023-04-06T03:42:40.764Z,97424.28
2023-04-06T03:45:07.905Z,97425.19
2023-04-06T03:47:34.498Z,97432.09
2023-04-06T03:50:01.323Z,97440.72
2023-04-06T03:52:27.854Z,97444.16
2023-04-06T03:54:54.350Z,97439.06
2023-04-06T03:57:20.987Z,97440.75
2023-04-06T03:59:47.536Z,97441.63
2023-04-06T04:02:14.101Z,97435.63
2023-04-06T04:04:40.688Z,97440.75
2023-04-06T04:07:07.176Z,97435.66
2023-04-06T04:09:33.714Z,97438.22
2023-04-06T04:12:00.245Z,97439.94
2023-04-06T04:14:27.444Z,97446.78
2023-04-06T04:16:54.088Z,97445.09
2023-04-06T04:19:20.946Z,97447.66
2023-04-06T04:21:48.063Z,97442.56
2023-04-06T04:24:14.802Z,97444.31
2023-04-06T04:26:41.445Z,97450.31
2023-04-06T04:29:08.502Z,97446.03
2023-04-06T04:31:35.299Z,97448.59
2023-04-06T04:34:02.663Z,97452.88
2023-04-06T04:36:29.207Z,97455.47
2023-04-06T04:38:55.915Z,97453.75
2023-04-06T04:41:22.442Z,97455.44
2023-04-06T04:43:48.955Z,97454.63
2023-04-06T04:46:15.536Z,97454.59
2023-04-06T04:48:42.232Z,97458.91
2023-04-06T04:51:08.790Z,97462.28
2023-04-06T04:53:35.566Z,97470.84
2023-04-06T04:56:02.544Z,97464.00
2023-04-06T04:58:29.100Z,97467.44
2023-04-06T05:00:55.886Z,97466.56
2023-04-06T05:03:25.890Z,97464.84
2023-04-06T05:05:52.620Z,97463.94
2023-04-06T05:08:19.501Z,97466.41
2023-04-06T05:10:46.499Z,97468.06
2023-04-06T05:13:13.221Z,97469.72
2023-04-06T05:15:41.267Z,97465.34
2023-04-06T05:18:09.198Z,97465.19
2023-04-06T05:20:36.718Z,97459.88
2023-04-06T05:23:03.379Z,97463.13
2023-04-06T05:25:30.011Z,97466.31
2023-04-06T05:27:56.851Z,97471.22
2023-04-06T05:30:23.476Z,97471.84
2023-04-06T05:32:51.899Z,97471.59
2023-04-06T05:35:18.736Z,97464.19
2023-04-06T05:37:45.366Z,97471.47
2023-04-06T05:40:12.040Z,97480.66
2023-04-06T05:42:46.148Z,97476.88
2023-04-06T05:45:17.770Z,97476.53
2023-04-06T05:47:47.631Z,97480.78
2023-04-06T05:50:16.747Z,97476.19
2023-04-06T05:52:44.231Z,97473.19
2023-04-06T05:55:12.164Z,97471.00
2023-04-06T05:57:38.964Z,97475.56
2023-04-06T06:00:09.138Z,97469.84
2023-04-06T06:02:35.747Z,97473.50
2023-04-06T06:05:02.675Z,97472.88
2023-04-06T06:07:29.253Z,97471.31
2023-04-06T06:09:59.262Z,97471.50
2023-04-06T06:12:25.937Z,97467.38
2023-04-06T06:14:52.607Z,97468.47
2023-04-06T06:17:19.128Z,97469.53
2023-04-06T06:19:45.926Z,97470.47
2023-04-06T06:22:12.497Z,97473.41
2023-04-06T06:24:39.363Z,97467.66
2023-04-06T06:27:06.097Z,97470.28
2023-04-06T06:29:32.674Z,97470.31
2023-04-06T06:31:59.304Z,97473.41
2023-04-06T06:34:26.454Z,97475.56
2023-04-06T06:36:55.296Z,97478.97
2023-04-06T06:39:22.122Z,97483.22
2023-04-06T06:41:48.631Z,97480.50
2023-04-06T06:44:15.509Z,97480.03
2023-04-06T06:46:42.027Z,97476.81
2023-04-06T06:49:08.650Z,97480.41
2023-04-06T06:51:35.416Z,97479.13
2023-04-06T06:54:02.018Z,97474.69
2023-04-06T06:56:28.918Z,97476.13
2023-04-06T06:58:55.727Z,97473.84
2023-04-06T07:01:22.389Z,97476.38
2023-04-06T07:03:49.145Z,97476.22
2023-04-06T07:06:15.820Z,97470.59
2023-04-06T07:08:42.453Z,97484.16
2023-04-06T07:11:09.118Z,97476.03
2023-04-06T07:13:35.700Z,97476.44
2023-04-06T07:16:02.237Z,97471.72
2023-04-06T07:18:28.778Z,97464.34
2023-04-06T07:20:55.368Z,97471.56
2023-04-06T07:23:21.953Z,97468.50
2023-04-06T07:25:48.552Z,97458.09
2023-04-06T07:28:15.234Z,97462.22
2023-04-06T07:30:41.808Z,97466.56
2023-04-06T07:33:08.474Z,97460.69
2023-04-06T07:35:35.943Z,97466.00
2023-04-06T07:38:02.602Z,97458.59
2023-04-06T07:40:29.270Z,97467.53
2023-04-06T07:42:57.559Z,97461.47
2023-04-06T07:45:24.708Z,97459.38
2023-04-06T07:47:51.400Z,97463.16
2023-04-06T07:50:18.197Z,97464.00
2023-04-06T07:52:44.763Z,97463.56
2023-04-06T07:55:11.433Z,97462.38
2023-04-06T07:57:38.199Z,97460.56
2023-04-06T08:00:05.449Z,97459.56
2023-04-06T08:02:35.230Z,97454.38
2023-04-06T08:05:01.995Z,97462.66
2023-04-06T08:07:28.570Z,97454.59
2023-04-06T08:09:55.212Z,97452.41
2023-04-06T08:12:21.747Z,97453.59
2023-04-06T08:14:49.287Z,97452.41
2023-04-06T08:17:16.018Z,97452.19
2023-04-06T08:19:45.161Z,97453.78
2023-04-06T08:22:12.432Z,97446.16
2023-04-06T08:24:39.197Z,97446.66
2023-04-06T08:27:05.793Z,97444.00
2023-04-06T08:29:32.401Z,97442.91
2023-04-06T08:31:59.006Z,97436.44
2023-04-06T08:34:25.895Z,97441.00
2023-04-06T08:36:52.503Z,97429.78
2023-04-06T08:39:26.051Z,97442.41
2023-04-06T08:41:53.754Z,97431.63
2023-04-06T08:44:20.553Z,97431.63
2023-04-06T08:46:47.510Z,97437.13
2023-04-06T08:49:17.070Z,97436.13
2023-04-06T08:51:43.980Z,97438.94
2023-04-06T08:54:10.734Z,97429.91
2023-04-06T08:56:39.812Z,97430.88
2023-04-06T08:59:07.457Z,97434.25
2023-04-06T09:01:41.153Z,97430.53
2023-04-06T09:04:12.132Z,97421.16
2023-04-06T09:06:41.607Z,97425.91
2023-04-06T09:09:08.595Z,97421.25
2023-04-06T09:11:51.639Z,97424.78
2023-04-06T09:14:37.419Z,97423.81
2023-04-06T09:17:04.085Z,97411.09
2023-04-06T09:19:30.688Z,97412.38
2023-04-06T09:22:10.021Z,97422.41
2023-04-06T09:24:51.867Z,97414.16
2023-04-06T09:27:30.750Z,97402.59
2023-04-06T09:30:08.792Z,97407.13
2023-04-06T09:32:51.492Z,97398.47
2023-04-06T09:35:20.991Z,97399.53
2023-04-06T09:37:48.924Z,97398.69
2023-04-06T09:40:15.902Z,97395.47
2023-04-06T09:42:43.386Z,97385.66
2023-04-06T09:45:10.408Z,97387.47
2023-04-06T09:47:38.253Z,97374.06
2023-04-06T09:50:05.815Z,97376.09
2023-04-06T09:52:41.467Z,97370.94
2023-04-06T09:55:09.267Z,97373.63
2023-04-06T09:57:49.908Z,97373.97
2023-04-06T10:00:20.234Z,97369.13
2023-04-06T10:02:47.381Z,97358.91
2023-04-06T10:05:16.936Z,97363.28
2023-04-06T10:07:59.059Z,97355.31
2023-04-06T10:10:28.632Z,97351.94
2023-04-06T10:12:56.960Z,97341.19
2023-04-06T10:15:24.072Z,97351.78
2023-04-06T10:17:52.040Z,97348.19
2023-04-06T10:20:28.331Z,97347.91
2023-04-06T10:23:21.786Z,97344.81
2023-04-06T10:25:58.730Z,97340.53
2023-04-06T10:28:26.290Z,97349.41
2023-04-06T10:31:00.738Z,97337.94
2023-04-06T10:33:27.770Z,97331.72
2023-04-06T10:35:56.086Z,97335.19
2023-04-06T10:38:33.960Z,97335.16
2023-04-06T10:41:11.209Z,97330.53
2023-04-06T10:43:39.973Z,97339.97
2023-04-06T10:46:08.251Z,97340.28
2023-04-06T10:48:51.129Z,97341.97
2023-04-06T10:51:19.018Z,97340.72
2023-04-06T10:53:50.110Z,97341.22
2023-04-06T10:56:18.105Z,97348.28
2023-04-06T10:58:53.594Z,97345.50
2023-04-06T11:01:22.153Z,97347.16
2023-04-06T11:03:54.288Z,97337.91
2023-04-06T11:06:27.699Z,97340.25
2023-04-06T11:08:55.781Z,97337.84
2023-04-06T11:11:24.520Z,97329.31
2023-04-06T11:13:52.496Z,97331.53
2023-04-06T11:16:24.927Z,97328.75
2023-04-06T11:19:03.318Z,97328.59
2023-04-06T11:21:34.235Z,97333.22
2023-04-06T11:24:09.700Z,97329.38
2023-04-06T11:27:05.911Z,97322.41
2023-04-06T11:29:32.945Z,97317.25
2023-04-06T11:32:00.754Z,97306.28
2023-04-06T11:34:30.375Z,97314.31
2023-04-06T11:36:59.440Z,97306.50
2023-04-06T11:39:27.823Z,97302.91
2023-04-06T11:42:03.578Z,97308.94
2023-04-06T11:44:43.783Z,97287.63
2023-04-06T11:47:11.828Z,97288.09
2023-04-06T11:49:43.139Z,97279.28
2023-04-06T11:52:16.692Z,97279.41
2023-04-06T11:54:43.323Z,97279.56
2023-04-06T11:57:10.361Z,97276.41
2023-04-06T11:59:37.365Z,97262.66
2023-04-06T12:02:04.426Z,97267.78
2023-04-06T12:04:32.004Z,97277.69
2023-04-06T12:06:59.155Z,97270.06
2023-04-06T12:09:25.794Z,97265.81
2023-04-06T12:11:52.441Z,97269.72
2023-04-06T12:14:19.071Z,97256.91
2023-04-06T12:16:45.741Z,97253.88
2023-04-06T12:19:12.284Z,97253.81
2023-04-06T12:21:38.981Z,97256.50
2023-04-06T12:24:06.485Z,97248.06
2023-04-06T12:26:33.918Z,97244.59
2023-04-06T12:29:08.209Z,97251.41
2023-04-06T12:31:40.146Z,97241.91
2023-04-06T12:34:06.994Z,97232.59
2023-04-06T12:36:34.542Z,97240.84
2023-04-06T12:39:01.942Z,97243.69
2023-04-06T12:41:29.293Z,97233.25
2023-04-06T12:43:55.933Z,97237.72
2023-04-06T12:46:23.066Z,97236.06
2023-04-06T12:48:49.738Z,97233.22
2023-04-06T12:51:16.623Z,97226.72
2023-04-06T12:53:43.512Z,97237.25
2023-04-06T12:56:18.458Z,97231.59
2023-04-06T12:58:45.805Z,97226.41
2023-04-06T13:01:15.392Z,97228.50
2023-04-06T13:03:42.374Z,97235.84
2023-04-06T13:06:09.668Z,97225.88
2023-04-06T13:08:38.228Z,97224.19
2023-04-06T13:11:05.999Z,97227.50
2023-04-06T13:13:32.753Z,97227.13
2023-04-06T13:16:08.210Z,97229.31
2023-04-06T13:18:35.689Z,97235.56
2023-04-06T13:21:02.313Z,97225.88
2023-04-06T13:23:29.172Z,97214.84
2023-04-06T13:26:04.438Z,97210.19
2023-04-06T13:28:31.806Z,97204.03
2023-04-06T13:31:01.361Z,97213.59
2023-04-06T13:33:28.244Z,97213.22
2023-04-06T13:35:54.980Z,97211.44
2023-04-06T13:38:21.847Z,97207.44
2023-04-06T13:40:48.416Z,97207.78
2023-04-06T13:43:15.025Z,97206.72
2023-04-06T13:45:41.913Z,97194.13
2023-04-06T13:48:08.622Z,97195.97
2023-04-06T13:50:36.144Z,97197.72
2023-04-06T13:53:02.654Z,97191.53
2023-04-06T13:55:29.448Z,97194.47
2023-04-06T13:57:56.190Z,97188.59
2023-04-06T14:00:22.925Z,97190.88
2023-04-06T14:02:49.694Z,97185.28
2023-04-06T14:05:16.342Z,97193.13
2023-04-06T14:07:42.811Z,97186.22
2023-04-06T14:10:14.726Z,97181.72
2023-04-06T14:12:45.794Z,97186.47
2023-04-06T14:15:13.192Z,97193.88
2023-04-06T14:17:40.657Z,97185.00
2023-04-06T14:20:08.532Z,97185.53
2023-04-06T14:22:35.124Z,97190.59
2023-04-06T14:25:02.086Z,97177.91
2023-04-06T14:27:28.561Z,97182.69
2023-04-06T14:29:55.231Z,97174.00
2023-04-06T14:32:22.016Z,97175.97
2023-04-06T14:34:48.620Z,97169.63
2023-04-06T14:37:15.714Z,97180.03
2023-04-06T14:39:42.294Z,97181.84
2023-04-06T14:42:08.809Z,97182.69
2023-04-06T14:44:37.645Z,97175.53
2023-04-06T14:47:07.645Z,97178.94
2023-04-06T14:49:34.137Z,97179.06
2023-04-06T14:52:00.885Z,97173.25
2023-04-06T14:54:27.793Z,97175.84
2023-04-06T14:56:54.310Z,97177.06
2023-04-06T14:59:20.937Z,97171.28
2023-04-06T15:01:47.523Z,97159.28
2023-04-06T15:04:15.164Z,97168.13
2023-04-06T15:06:41.891Z,97164.16
2023-04-06T15:09:08.429Z,97158.22
2023-04-06T15:11:34.904Z,97160.16
2023-04-06T15:14:01.519Z,97162.47
2023-04-06T15:16:28.228Z,97159.72
2023-04-06T15:18:54.872Z,97164.03
2023-04-06T15:21:21.615Z,97161.97
2023-04-06T15:23:48.527Z,97157.91
2023-04-06T15:26:15.522Z,97157.28
2023-04-06T15:28:42.084Z,97160.31
2023-04-06T15:31:33.097Z,97159.94
2023-04-06T15:34:03.960Z,97152.97
2023-04-06T15:36:30.945Z,97156.31
2023-04-06T15:39:01.129Z,97163.66
2023-04-06T15:41:28.450Z,97160.88
2023-04-06T15:43:56.000Z,97161.28
2023-04-06T15:46:22.904Z,97162.69
2023-04-06T15:48:49.845Z,97162.63
2023-04-06T15:51:19.109Z,97159.13
2023-04-06T15:53:46.392Z,97162.91
2023-04-06T15:59:08.456Z,97159.69
2023-04-06T16:01:35.237Z,97161.31
2023-04-06T16:04:01.977Z,97156.97
2023-04-06T16:06:28.650Z,97158.69
2023-04-06T16:08:55.292Z,97160.88
2023-04-06T16:11:22.041Z,97156.16
2023-04-06T16:13:54.944Z,97155.03
2023-04-06T16:16:22.408Z,97158.09
2023-04-06T16:18:49.028Z,97162.84
2023-04-06T16:21:17.292Z,97157.38
2023-04-06T16:23:45.317Z,97165.72
2023-04-06T16:26:18.140Z,97158.22
2023-04-06T16:28:45.694Z,97159.81
2023-04-06T16:31:20.178Z,97165.19
2023-04-06T16:33:47.041Z,97157.00
2023-04-06T16:36:13.747Z,97160.88
2023-04-06T16:38:40.276Z,97152.53
2023-04-06T16:41:06.891Z,97154.03
2023-04-06T16:43:33.376Z,97153.50
2023-04-06T16:45:59.903Z,97148.53
2023-04-06T16:48:26.725Z,97155.16
2023-04-06T16:50:53.398Z,97160.06
2023-04-06T16:53:19.945Z,97154.38
2023-04-06T16:55:46.508Z,97157.44
2023-04-06T16:58:14.225Z,97155.31
2023-04-06T17:00:40.830Z,97159.38
2023-04-06T17:03:07.661Z,97153.91
2023-04-06T17:05:35.870Z,97155.31
2023-04-06T17:08:02.714Z,97156.75
2023-04-06T17:10:33.834Z,97159.03
2023-04-06T17:13:03.822Z,97159.53
2023-04-06T17:15:31.735Z,97162.56
2023-04-06T17:17:58.307Z,97170.28
2023-04-06T17:20:24.898Z,97167.41
2023-04-06T17:22:51.558Z,97168.78
2023-04-06T17:25:18.287Z,97164.09
2023-04-06T17:27:44.929Z,97163.88
2023-04-06T17:30:12.773Z,97162.84
2023-04-06T17:32:39.663Z,97170.38
2023-04-06T17:35:06.641Z,97165.78
2023-04-06T17:37:33.494Z,97168.19
2023-04-06T17:40:00.123Z,97167.69
2023-04-06T17:42:27.508Z,97176.03
2023-04-06T17:44:54.060Z,97174.91
2023-04-06T17:47:20.761Z,97178.06
2023-04-06T17:49:47.685Z,97184.00
2023-04-06T17:52:14.223Z,97182.25
2023-04-06T17:54:41.275Z,97186.78
2023-04-06T17:57:08.573Z,97193.03
2023-04-06T17:59:35.309Z,97188.47
2023-04-06T18:02:03.219Z,97189.91
2023-04-06T18:04:30.110Z,97198.34
2023-04-06T18:06:56.761Z,97194.50
2023-04-06T18:09:23.305Z,97198.56
2023-04-06T18:11:49.805Z,97200.06
2023-04-06T18:14:16.593Z,97207.47
2023-04-06T18:16:43.184Z,97201.91
2023-04-06T18:19:09.901Z,97216.47
2023-04-06T18:21:36.428Z,97216.41
2023-04-06T18:24:05.381Z,97215.97
2023-04-06T18:26:33.487Z,97213.09
2023-04-06T18:29:00.018Z,97219.09
2023-04-06T18:31:26.568Z,97217.13
2023-04-06T18:33:54.436Z,97219.06
2023-04-06T18:36:21.387Z,97227.53
2023-04-06T18:38:48.917Z,97225.66
2023-04-06T18:41:16.475Z,97231.69
2023-04-06T18:43:43.218Z,97231.31
2023-04-06T18:46:13.644Z,97231.09
2023-04-06T18:48:41.780Z,97239.97
2023-04-06T18:51:08.652Z,97241.22
2023-04-06T18:53:37.291Z,97234.59
2023-04-06T18:56:16.654Z,97234.78
2023-04-06T18:58:44.228Z,97239.94
2023-04-06T19:01:11.003Z,97239.25
2023-04-06T19:03:37.864Z,97234.34
2023-04-06T19:06:07.439Z,97250.41
2023-04-06T19:08:33.986Z,97248.84
2023-04-06T19:11:05.475Z,97254.41
2023-04-06T19:13:32.001Z,97262.47
2023-04-06T19:15:58.536Z,97260.09
2023-04-06T19:18:25.073Z,97259.66
2023-04-06T19:20:52.828Z,97259.38
2023-04-06T19:23:19.441Z,97258.66
2023-04-06T19:25:46.027Z,97267.41
2023-04-06T19:28:14.731Z,97265.16
2023-04-06T19:30:42.240Z,97260.56
2023-04-06T19:33:09.180Z,97261.69
2023-04-06T19:35:35.843Z,97267.94
2023-04-06T19:38:02.365Z,97270.13
2023-04-06T19:40:28.851Z,97273.13
2023-04-06T19:42:55.440Z,97275.25
2023-04-06T19:45:21.940Z,97277.16
2023-04-06T19:47:48.477Z,97272.44
2023-04-06T19:50:15.549Z,97265.88
2023-04-06T19:52:42.150Z,97273.13
2023-04-06T19:55:08.967Z,97272.31
2023-04-06T19:57:35.569Z,97272.53
2023-04-06T20:00:02.137Z,97279.88
2023-04-06T20:02:29.083Z,97282.63
2023-04-06T20:04:55.782Z,97278.69
2023-04-06T20:07:22.146Z,97286.56
2023-04-06T20:09:48.709Z,97280.91
2023-04-06T20:12:15.476Z,97282.91
2023-04-06T20:14:41.996Z,97287.19
2023-04-06T20:17:08.609Z,97288.16
2023-04-06T20:19:35.414Z,97287.47
2023-04-06T20:22:03.705Z,97288.22
2023-04-06T20:24:31.356Z,97286.75
2023-04-06T20:26:58.192Z,97286.97
2023-04-06T20:29:24.943Z,97284.72
2023-04-06T20:31:51.872Z,97285.06
2023-04-06T20:34:18.697Z,97293.03
2023-04-06T20:36:45.403Z,97294.06
2023-04-06T20:39:11.968Z,97286.38
2023-04-06T20:41:38.591Z,97289.03
2023-04-06T20:44:05.121Z,97284.00
2023-04-06T20:46:31.707Z,97288.66
2023-04-06T20:48:59.106Z,97288.72
2023-04-06T20:51:25.710Z,97286.28
2023-04-06T20:53:52.954Z,97282.75
2023-04-06T20:56:21.808Z,97281.16
2023-04-06T20:58:48.795Z,97282.03
2023-04-06T21:01:17.643Z,97282.19
2023-04-06T21:03:45.204Z,97278.22
2023-04-06T21:06:12.031Z,97278.47
2023-04-06T21:08:38.995Z,97276.81
2023-04-06T21:11:06.457Z,97276.22
2023-04-06T21:13:33.717Z,97278.72
2023-04-06T21:16:01.614Z,97271.03
2023-04-06T21:18:29.339Z,97269.56
2023-04-06T21:20:55.947Z,97276.69
2023-04-06T21:23:23.089Z,97273.38
2023-04-06T21:25:53.498Z,97286.28
2023-04-06T21:28:20.024Z,97282.13
2023-04-06T21:30:46.708Z,97282.91
2023-04-06T21:33:13.295Z,97281.25
2023-04-06T21:35:41.073Z,97280.59
2023-04-06T21:38:08.694Z,97279.03
2023-04-06T21:40:35.537Z,97276.63
2023-04-06T21:43:02.349Z,97279.31
2023-04-06T21:45:28.905Z,97279.41
2023-04-06T21:47:55.662Z,97276.03
2023-04-06T21:50:25.304Z,97277.56
2023-04-06T21:52:51.843Z,97280.13
2023-04-06T21:55:18.418Z,97275.75
2023-04-06T21:57:44.987Z,97280.25
2023-04-06T22:00:12.176Z,97277.88
2023-04-06T22:02:40.914Z,97275.34
2023-04-06T22:05:08.688Z,97276.47
2023-04-06T22:07:35.330Z,97279.09
2023-04-06T22:10:02.054Z,97279.34
2023-04-06T22:12:28.583Z,97287.19
2023-04-06T22:14:55.072Z,97280.34
2023-04-06T22:17:21.748Z,97278.63
2023-04-06T22:19:48.283Z,97271.91
2023-04-06T22:22:14.784Z,97270.94
2023-04-06T22:24:41.362Z,97266.63
2023-04-06T22:27:07.915Z,97265.81
2023-04-06T22:29:34.499Z,97260.72
2023-04-06T22:32:01.205Z,97262.44
2023-04-06T22:34:27.777Z,97262.63
2023-04-06T22:36:54.350Z,97261.00
2023-04-06T22:39:20.920Z,97256.00
2023-04-06T22:41:47.459Z,97254.53
2023-04-06T22:44:14.115Z,97252.13
2023-04-06T22:46:40.980Z,97248.72
2023-04-06T22:49:07.504Z,97257.41
2023-04-06T22:51:34.046Z,97255.72
2023-04-06T22:54:00.586Z,97253.28
2023-04-06T22:56:27.162Z,97253.19
2023-04-06T22:58:55.881Z,97247.81
2023-04-06T23:01:22.402Z,97247.56
2023-04-06T23:03:49.068Z,97240.69
2023-04-06T23:06:15.711Z,97244.13
2023-04-06T23:08:42.268Z,97240.72
2023-04-06T23:11:08.761Z,97240.88
2023-04-06T23:13:35.319Z,97234.97
2023-04-06T23:16:02.172Z,97237.63
2023-04-06T23:18:28.708Z,97241.22
2023-04-06T23:20:55.379Z,97243.94
2023-04-06T23:23:21.997Z,97243.19
2023-04-06T23:25:48.449Z,97235.69
2023-04-06T23:28:14.913Z,97235.91
2023-04-06T23:30:41.777Z,97231.72
2023-04-06T23:33:08.333Z,97232.72
2023-04-06T23:35:34.884Z,97236.13
2023-04-06T23:38:01.395Z,97242.16
2023-04-06T23:40:27.978Z,97238.00
2023-04-06T23:42:54.503Z,97240.72
2023-04-06T23:45:21.264Z,97229.59
2023-04-06T23:47:47.944Z,97226.28
2023-04-06T23:50:14.509Z,97224.63
2023-04-06T23:52:41.362Z,97228.19
2023-04-06T23:55:08.196Z,97224.88
2023-04-06T23:57:34.706Z,97224.00
